EWG297 EDDH-EDDL
Flight info
| Callsign | EWG297 |
|---|---|
| Flight time | 0h 41m |
| Altitude | 20000 |
| Route | HABFU1G HABFU Y348 MAWEQ Z718 OSNAD M170 HMM T851 HALME HALME1A |
| Aircraft | A321/M-SDE3FGHIRWY/LB1 |
Departure
| Time | 2026-05-04 18:55 |
|---|---|
| Airport | Hamburg Helmut Schmidt Airport (EDDH) |
Arrival
| Time | 2026-05-04 19:37 |
|---|---|
| Airport | Düsseldorf Airport (EDDL) |
| Time | Latitude | Longitude | Altitude | Speed | Heading |
|---|---|---|---|---|---|
| 2026-05-04 18:43 | 53.62929 | 10.00274 | 51 ft | 0 kts | 108° |
| 2026-05-04 18:51 | 53.62930 | 10.00268 | 51 ft | 2 kts | 108° |
| 2026-05-04 18:51 | 53.62935 | 10.00242 | 50 ft | 2 kts | 108° |
| 2026-05-04 18:51 | 53.62940 | 10.00216 | 51 ft | 2 kts | 108° |
| 2026-05-04 18:51 | 53.62945 | 10.00190 | 51 ft | 2 kts | 107° |
| 2026-05-04 18:52 | 53.62951 | 10.00165 | 51 ft | 2 kts | 119° |
| 2026-05-04 18:52 | 53.62959 | 10.00141 | 50 ft | 2 kts | 123° |
| 2026-05-04 18:52 | 53.62969 | 10.00119 | 50 ft | 2 kts | 146° |
| 2026-05-04 18:52 | 53.62984 | 10.00108 | 51 ft | 2 kts | 176° |
| 2026-05-04 18:53 | 53.63000 | 10.00110 | 50 ft | 2 kts | 207° |
| 2026-05-04 18:54 | 53.62998 | 10.00109 | 51 ft | 2 kts | 207° |
| 2026-05-04 18:54 | 53.62957 | 10.00065 | 50 ft | 12 kts | 216° |
| 2026-05-04 18:54 | 53.62904 | 9.99942 | 52 ft | 14 kts | 240° |
| 2026-05-04 18:54 | 53.62866 | 9.99785 | 53 ft | 13 kts | 279° |
| 2026-05-04 18:55 | 53.62939 | 9.99680 | 53 ft | 21 kts | 332° |
| 2026-05-04 18:55 | 53.64271 | 9.98533 | 118 ft | 173 kts | 332° |
| 2026-05-04 18:55 | 53.65349 | 9.97639 | 996 ft | 174 kts | 333° |
| 2026-05-04 18:56 | 53.66476 | 9.96713 | 1570 ft | 191 kts | 332° |
| 2026-05-04 18:56 | 53.67703 | 9.95622 | 1931 ft | 213 kts | 331° |
| 2026-05-04 18:56 | 53.69032 | 9.94459 | 2714 ft | 217 kts | 331° |
| 2026-05-04 18:56 | 53.70360 | 9.93229 | 3585 ft | 216 kts | 320° |
| 2026-05-04 18:57 | 53.71196 | 9.91191 | 4458 ft | 213 kts | 287° |
| 2026-05-04 18:57 | 53.71331 | 9.88639 | 4979 ft | 232 kts | 260° |
| 2026-05-04 18:57 | 53.70813 | 9.85903 | 5522 ft | 253 kts | 250° |
| 2026-05-04 18:57 | 53.70212 | 9.83065 | 6461 ft | 260 kts | 251° |
| 2026-05-04 18:58 | 53.69626 | 9.80149 | 7401 ft | 265 kts | 251° |
| 2026-05-04 18:58 | 53.69050 | 9.77215 | 8377 ft | 268 kts | 252° |
| 2026-05-04 18:58 | 53.68467 | 9.74225 | 9429 ft | 269 kts | 251° |
| 2026-05-04 18:58 | 53.67871 | 9.71228 | 10447 ft | 272 kts | 251° |
| 2026-05-04 18:59 | 53.67241 | 9.68103 | 10999 ft | 290 kts | 251° |
| 2026-05-04 18:59 | 53.66561 | 9.64806 | 11495 ft | 307 kts | 251° |
| 2026-05-04 18:59 | 53.65767 | 9.61352 | 11953 ft | 325 kts | 243° |
| 2026-05-04 18:59 | 53.64462 | 9.58188 | 12624 ft | 335 kts | 229° |
| 2026-05-04 19:00 | 53.62670 | 9.55610 | 13366 ft | 344 kts | 215° |
| 2026-05-04 19:00 | 53.60557 | 9.53657 | 14162 ft | 349 kts | 210° |
| 2026-05-04 19:00 | 53.58396 | 9.51750 | 14936 ft | 351 kts | 211° |
| 2026-05-04 19:00 | 53.56247 | 9.49778 | 15705 ft | 354 kts | 211° |
| 2026-05-04 19:01 | 53.54119 | 9.47769 | 16492 ft | 356 kts | 211° |
| 2026-05-04 19:01 | 53.51939 | 9.45749 | 17217 ft | 360 kts | 211° |
| 2026-05-04 19:01 | 53.49730 | 9.43710 | 17951 ft | 364 kts | 211° |
| 2026-05-04 19:01 | 53.47500 | 9.41660 | 18628 ft | 368 kts | 211° |
| 2026-05-04 19:02 | 53.45298 | 9.39454 | 19248 ft | 369 kts | 216° |
| 2026-05-04 19:02 | 53.43155 | 9.37077 | 19773 ft | 372 kts | 216° |
| 2026-05-04 19:02 | 53.41001 | 9.34667 | 19937 ft | 371 kts | 216° |
| 2026-05-04 19:02 | 53.38856 | 9.32262 | 19986 ft | 371 kts | 216° |
| 2026-05-04 19:03 | 53.36715 | 9.29856 | 19988 ft | 371 kts | 216° |
| 2026-05-04 19:03 | 53.34602 | 9.27480 | 19986 ft | 371 kts | 216° |
| 2026-05-04 19:03 | 53.32463 | 9.25073 | 19979 ft | 371 kts | 216° |
| 2026-05-04 19:03 | 53.30320 | 9.22660 | 19981 ft | 371 kts | 216° |
| 2026-05-04 19:04 | 53.28112 | 9.20424 | 19982 ft | 373 kts | 211° |
| 2026-05-04 19:04 | 53.25826 | 9.18360 | 19986 ft | 373 kts | 210° |
| 2026-05-04 19:04 | 53.23523 | 9.16349 | 19985 ft | 374 kts | 210° |
| 2026-05-04 19:04 | 53.21209 | 9.14365 | 19986 ft | 374 kts | 209° |
| 2026-05-04 19:05 | 53.18855 | 9.12352 | 19994 ft | 390 kts | 209° |
| 2026-05-04 19:05 | 53.16384 | 9.10228 | 19993 ft | 410 kts | 209° |
| 2026-05-04 19:05 | 53.13793 | 9.07989 | 19991 ft | 427 kts | 209° |
| 2026-05-04 19:05 | 53.11119 | 9.05675 | 19992 ft | 437 kts | 209° |
| 2026-05-04 19:06 | 53.08445 | 9.03362 | 19994 ft | 440 kts | 209° |
| 2026-05-04 19:06 | 53.05724 | 9.01011 | 19998 ft | 441 kts | 209° |
| 2026-05-04 19:06 | 53.03005 | 8.98658 | 19994 ft | 441 kts | 209° |
| 2026-05-04 19:06 | 53.00284 | 8.96301 | 19998 ft | 441 kts | 209° |
| 2026-05-04 19:07 | 52.97561 | 8.93951 | 19996 ft | 441 kts | 209° |
| 2026-05-04 19:07 | 52.94834 | 8.91607 | 20000 ft | 442 kts | 209° |
| 2026-05-04 19:07 | 52.92100 | 8.89271 | 19995 ft | 442 kts | 209° |
| 2026-05-04 19:07 | 52.89368 | 8.86937 | 19993 ft | 442 kts | 209° |
| 2026-05-04 19:08 | 52.86634 | 8.84596 | 19987 ft | 442 kts | 209° |
| 2026-05-04 19:08 | 52.83904 | 8.82258 | 19983 ft | 442 kts | 209° |
| 2026-05-04 19:08 | 52.81210 | 8.79953 | 19979 ft | 442 kts | 208° |
| 2026-05-04 19:08 | 52.78484 | 8.77626 | 19974 ft | 441 kts | 208° |
| 2026-05-04 19:09 | 52.75752 | 8.75304 | 19971 ft | 441 kts | 208° |
| 2026-05-04 19:09 | 52.73022 | 8.72991 | 19968 ft | 441 kts | 208° |
| 2026-05-04 19:09 | 52.70290 | 8.70677 | 19958 ft | 441 kts | 208° |
| 2026-05-04 19:09 | 52.67566 | 8.68369 | 19964 ft | 441 kts | 208° |
| 2026-05-04 19:10 | 52.64840 | 8.66053 | 19958 ft | 440 kts | 208° |
| 2026-05-04 19:10 | 52.62123 | 8.63746 | 19963 ft | 440 kts | 208° |
| 2026-05-04 19:10 | 52.59394 | 8.61437 | 19957 ft | 440 kts | 208° |
| 2026-05-04 19:10 | 52.56672 | 8.59144 | 19957 ft | 440 kts | 208° |
| 2026-05-04 19:11 | 52.53987 | 8.56890 | 19953 ft | 440 kts | 208° |
| 2026-05-04 19:11 | 52.51260 | 8.54602 | 19956 ft | 439 kts | 207° |
| 2026-05-04 19:11 | 52.48537 | 8.52320 | 19953 ft | 439 kts | 207° |
| 2026-05-04 19:11 | 52.45818 | 8.50042 | 19955 ft | 439 kts | 207° |
| 2026-05-04 19:12 | 52.43099 | 8.47769 | 19954 ft | 439 kts | 207° |
| 2026-05-04 19:12 | 52.37663 | 8.43229 | 19956 ft | 438 kts | 207° |
| 2026-05-04 19:12 | 52.34944 | 8.40961 | 19962 ft | 438 kts | 207° |
| 2026-05-04 19:13 | 52.32234 | 8.38701 | 19960 ft | 438 kts | 207° |
| 2026-05-04 19:13 | 52.29519 | 8.36439 | 19956 ft | 438 kts | 207° |
| 2026-05-04 19:13 | 52.26932 | 8.33978 | 19947 ft | 437 kts | 217° |
| 2026-05-04 19:13 | 52.24785 | 8.30555 | 19949 ft | 437 kts | 230° |
| 2026-05-04 19:14 | 52.22893 | 8.26661 | 19952 ft | 438 kts | 231° |
| 2026-05-04 19:14 | 52.21015 | 8.22752 | 19952 ft | 438 kts | 231° |
| 2026-05-04 19:14 | 52.19143 | 8.18841 | 19953 ft | 438 kts | 231° |
| 2026-05-04 19:14 | 52.17270 | 8.14934 | 19953 ft | 435 kts | 231° |
| 2026-05-04 19:15 | 52.15457 | 8.11171 | 19894 ft | 408 kts | 231° |
| 2026-05-04 19:15 | 52.13751 | 8.07644 | 19776 ft | 385 kts | 231° |
| 2026-05-04 19:15 | 52.12153 | 8.04350 | 19623 ft | 367 kts | 231° |
| 2026-05-04 19:15 | 52.10595 | 8.01141 | 19177 ft | 358 kts | 230° |
| 2026-05-04 19:16 | 52.09058 | 7.97979 | 18579 ft | 354 kts | 230° |
| 2026-05-04 19:16 | 52.07530 | 7.94845 | 17918 ft | 352 kts | 230° |
| 2026-05-04 19:16 | 52.06011 | 7.91740 | 17215 ft | 350 kts | 230° |
| 2026-05-04 19:16 | 52.04502 | 7.88647 | 16545 ft | 348 kts | 231° |
| 2026-05-04 19:17 | 52.03003 | 7.85578 | 15895 ft | 346 kts | 231° |
| 2026-05-04 19:17 | 52.01512 | 7.82531 | 15251 ft | 344 kts | 231° |
| 2026-05-04 19:17 | 52.00029 | 7.79504 | 14625 ft | 342 kts | 231° |
| 2026-05-04 19:17 | 51.98555 | 7.76504 | 14126 ft | 339 kts | 231° |
| 2026-05-04 19:18 | 51.97081 | 7.73506 | 13964 ft | 341 kts | 231° |
| 2026-05-04 19:18 | 51.95599 | 7.70487 | 13973 ft | 342 kts | 231° |
| 2026-05-04 19:18 | 51.94134 | 7.67504 | 13974 ft | 343 kts | 231° |
| 2026-05-04 19:18 | 51.92649 | 7.64490 | 13970 ft | 343 kts | 231° |
| 2026-05-04 19:19 | 51.91208 | 7.61572 | 13967 ft | 343 kts | 230° |
| 2026-05-04 19:19 | 51.89720 | 7.58556 | 13978 ft | 343 kts | 230° |
| 2026-05-04 19:19 | 51.88231 | 7.55540 | 13973 ft | 343 kts | 230° |
| 2026-05-04 19:19 | 51.86745 | 7.52532 | 13975 ft | 343 kts | 230° |
| 2026-05-04 19:20 | 51.85255 | 7.49521 | 13971 ft | 343 kts | 230° |
| 2026-05-04 19:20 | 51.83762 | 7.46510 | 13976 ft | 343 kts | 230° |
| 2026-05-04 19:20 | 51.82271 | 7.43507 | 13972 ft | 343 kts | 230° |
| 2026-05-04 19:20 | 51.80776 | 7.40501 | 13979 ft | 343 kts | 230° |
| 2026-05-04 19:21 | 51.79303 | 7.37548 | 13975 ft | 343 kts | 230° |
| 2026-05-04 19:21 | 51.77806 | 7.34553 | 13980 ft | 342 kts | 230° |
| 2026-05-04 19:21 | 51.76310 | 7.31556 | 13970 ft | 342 kts | 230° |
| 2026-05-04 19:21 | 51.74822 | 7.28585 | 13703 ft | 338 kts | 230° |
| 2026-05-04 19:22 | 51.73353 | 7.25641 | 13017 ft | 336 kts | 230° |
| 2026-05-04 19:22 | 51.71901 | 7.22713 | 12355 ft | 333 kts | 230° |
| 2026-05-04 19:22 | 51.70441 | 7.19833 | 11715 ft | 330 kts | 226° |
| 2026-05-04 19:22 | 51.68790 | 7.17481 | 11452 ft | 301 kts | 216° |
| 2026-05-04 19:23 | 51.67153 | 7.15676 | 11225 ft | 271 kts | 215° |
| 2026-05-04 19:23 | 51.65933 | 7.13532 | 10774 ft | 256 kts | 239° |
| 2026-05-04 19:23 | 51.65119 | 7.11040 | 10154 ft | 253 kts | 243° |
| 2026-05-04 19:23 | 51.64601 | 7.09323 | 9703 ft | 252 kts | 243° |
| 2026-05-04 19:24 | 51.63598 | 7.05961 | 9046 ft | 251 kts | 243° |
| 2026-05-04 19:24 | 51.62846 | 7.03433 | 8727 ft | 249 kts | 243° |
| 2026-05-04 19:24 | 51.62105 | 7.00930 | 8415 ft | 247 kts | 243° |
| 2026-05-04 19:24 | 51.61371 | 6.98443 | 8078 ft | 245 kts | 243° |
| 2026-05-04 19:25 | 51.60644 | 6.95971 | 7761 ft | 243 kts | 243° |
| 2026-05-04 19:25 | 51.60165 | 6.94342 | 7536 ft | 242 kts | 243° |
| 2026-05-04 19:25 | 51.59418 | 6.91940 | 7206 ft | 240 kts | 235° |
| 2026-05-04 19:25 | 51.58210 | 6.90254 | 7003 ft | 233 kts | 202° |
| 2026-05-04 19:26 | 51.56102 | 6.90104 | 6966 ft | 236 kts | 160° |
| 2026-05-04 19:26 | 51.54763 | 6.91610 | 6970 ft | 240 kts | 129° |
| 2026-05-04 19:26 | 51.54064 | 6.94033 | 6970 ft | 243 kts | 107° |
| 2026-05-04 19:26 | 51.53793 | 6.95821 | 6969 ft | 244 kts | 104° |
| 2026-05-04 19:27 | 51.53443 | 6.98454 | 6972 ft | 244 kts | 103° |
| 2026-05-04 19:27 | 51.53099 | 7.01130 | 6972 ft | 245 kts | 103° |
| 2026-05-04 19:27 | 51.52759 | 7.03801 | 6842 ft | 243 kts | 103° |
| 2026-05-04 19:27 | 51.52424 | 7.06461 | 6508 ft | 243 kts | 103° |
| 2026-05-04 19:28 | 51.52097 | 7.09106 | 6160 ft | 242 kts | 103° |
| 2026-05-04 19:28 | 51.51769 | 7.11754 | 5792 ft | 241 kts | 105° |
| 2026-05-04 19:28 | 51.51082 | 7.14133 | 5431 ft | 234 kts | 134° |
| 2026-05-04 19:28 | 51.49771 | 7.15535 | 4964 ft | 224 kts | 166° |
| 2026-05-04 19:29 | 51.48271 | 7.15586 | 4287 ft | 219 kts | 196° |
| 2026-05-04 19:29 | 51.46824 | 7.14772 | 3548 ft | 222 kts | 202° |
| 2026-05-04 19:29 | 51.45432 | 7.13740 | 3100 ft | 221 kts | 205° |
| 2026-05-04 19:29 | 51.44183 | 7.12302 | 2995 ft | 225 kts | 233° |
| 2026-05-04 19:30 | 51.43502 | 7.10045 | 3018 ft | 229 kts | 247° |
| 2026-05-04 19:30 | 51.42843 | 7.07751 | 3021 ft | 218 kts | 242° |
| 2026-05-04 19:30 | 51.42187 | 7.05729 | 3005 ft | 191 kts | 241° |
| 2026-05-04 19:30 | 51.41593 | 7.03945 | 2998 ft | 181 kts | 240° |
| 2026-05-04 19:31 | 51.41274 | 7.02983 | 3019 ft | 179 kts | 241° |
| 2026-05-04 19:31 | 51.40697 | 7.01230 | 3013 ft | 177 kts | 241° |
| 2026-05-04 19:31 | 51.40102 | 6.99516 | 3013 ft | 175 kts | 234° |
| 2026-05-04 19:31 | 51.39365 | 6.97985 | 3013 ft | 175 kts | 231° |
| 2026-05-04 19:32 | 51.39107 | 6.97451 | 3018 ft | 175 kts | 230° |
| 2026-05-04 19:32 | 51.38358 | 6.95906 | 2955 ft | 174 kts | 231° |
| 2026-05-04 19:32 | 51.37934 | 6.95019 | 2825 ft | 175 kts | 231° |
| 2026-05-04 19:32 | 51.37773 | 6.94681 | 2780 ft | 175 kts | 231° |
| 2026-05-04 19:33 | 51.37235 | 6.93562 | 2617 ft | 175 kts | 230° |
| 2026-05-04 19:33 | 51.36500 | 6.92008 | 2381 ft | 173 kts | 231° |
| 2026-05-04 19:33 | 51.35777 | 6.90474 | 2157 ft | 173 kts | 231° |
| 2026-05-04 19:34 | 51.35084 | 6.89008 | 1924 ft | 156 kts | 231° |
| 2026-05-04 19:34 | 51.34446 | 6.87660 | 1725 ft | 149 kts | 231° |
| 2026-05-04 19:34 | 51.33826 | 6.86352 | 1526 ft | 146 kts | 231° |
| 2026-05-04 19:34 | 51.33214 | 6.85065 | 1330 ft | 146 kts | 230° |
| 2026-05-04 19:35 | 51.32638 | 6.83851 | 1129 ft | 144 kts | 230° |
| 2026-05-04 19:35 | 51.32031 | 6.82575 | 949 ft | 145 kts | 231° |
| 2026-05-04 19:35 | 51.31423 | 6.81295 | 747 ft | 145 kts | 231° |
| 2026-05-04 19:35 | 51.30832 | 6.80051 | 561 ft | 142 kts | 231° |
| 2026-05-04 19:36 | 51.30252 | 6.78830 | 376 ft | 142 kts | 232° |
| 2026-05-04 19:36 | 51.29660 | 6.77571 | 203 ft | 140 kts | 231° |
| 2026-05-04 19:36 | 51.29154 | 6.76530 | 132 ft | 121 kts | 234° |
| 2026-05-04 19:36 | 51.28807 | 6.75791 | 125 ft | 54 kts | 233° |
| 2026-05-04 19:37 | 51.28588 | 6.75338 | 123 ft | 49 kts | 231° |
| 2026-05-04 19:37 | 51.28423 | 6.74986 | 121 ft | 32 kts | 232° |
| 2026-05-04 19:37 | 51.28332 | 6.74952 | 117 ft | 7 kts | 148° |
| 2026-05-04 19:37 | 51.28294 | 6.74985 | 118 ft | 6 kts | 153° |
| 2026-05-04 19:38 | 51.28262 | 6.75011 | 119 ft | 5 kts | 153° |
| 2026-05-04 19:38 | 51.28235 | 6.75033 | 121 ft | 4 kts | 153° |
| 2026-05-04 19:38 | 51.28234 | 6.75034 | 121 ft | 0 kts | 153° |
| 2026-05-04 19:39 | 51.28191 | 6.75068 | 120 ft | 12 kts | 154° |
| 2026-05-04 19:39 | 51.28108 | 6.75134 | 121 ft | 14 kts | 154° |
| 2026-05-04 19:39 | 51.28095 | 6.75144 | 123 ft | 0 kts | 154° |
| 2026-05-04 19:46 | 51.28094 | 6.75145 | 123 ft | 1 kts | 154° |
| 2026-05-04 19:47 | 51.28034 | 6.75194 | 122 ft | 20 kts | 153° |
| 2026-05-04 19:47 | 51.27925 | 6.75281 | 123 ft | 0 kts | 153° |
| 2026-05-04 19:47 | 51.27909 | 6.75294 | 122 ft | 8 kts | 153° |
| 2026-05-04 19:47 | 51.27907 | 6.75296 | 122 ft | 0 kts | 153° |
| 2026-05-04 19:48 | 51.27895 | 6.75305 | 122 ft | 7 kts | 153° |
| 2026-05-04 19:48 | 51.27850 | 6.75387 | 124 ft | 12 kts | 96° |
| 2026-05-04 19:48 | 51.27885 | 6.75507 | 125 ft | 13 kts | 52° |
| 2026-05-04 19:48 | 51.27943 | 6.75630 | 126 ft | 15 kts | 54° |
| 2026-05-04 19:49 | 51.27952 | 6.75650 | 126 ft | 0 kts | 54° |
| 2026-05-04 19:51 | 51.27960 | 6.75667 | 127 ft | 7 kts | 53° |
| 2026-05-04 19:51 | 51.28014 | 6.75780 | 126 ft | 16 kts | 52° |
| 2026-05-04 19:51 | 51.28086 | 6.75931 | 124 ft | 9 kts | 53° |
| 2026-05-04 19:52 | 51.28087 | 6.75934 | 124 ft | 0 kts | 53° |
| 2026-05-04 19:52 | 51.28093 | 6.75946 | 128 ft | 4 kts | 53° |
| 2026-05-04 19:53 | 51.28125 | 6.76016 | 128 ft | 11 kts | 52° |
| 2026-05-04 19:53 | 51.28189 | 6.76152 | 128 ft | 21 kts | 57° |
| 2026-05-04 19:53 | 51.28177 | 6.76256 | 123 ft | 9 kts | 132° |
| 2026-05-04 19:53 | 51.28130 | 6.76356 | 125 ft | 13 kts | 125° |
| 2026-05-04 19:54 | 51.28055 | 6.76457 | 123 ft | 16 kts | 147° |